createdAt,value
2017-01-15T00:00:02.819Z,0
2017-01-15T00:00:49.746Z,0
2017-01-15T00:01:34.720Z,0
2017-01-15T00:02:17.800Z,0
2017-01-15T00:03:06.722Z,0
2017-01-15T00:03:48.808Z,0
2017-01-15T00:06:12.704Z,0
2017-01-15T00:06:56.353Z,0
2017-01-15T00:07:38.388Z,0
2017-01-15T00:08:22.496Z,0
2017-01-15T00:09:04.516Z,0
2017-01-15T00:09:47.586Z,0
2017-01-15T00:10:29.397Z,0
2017-01-15T00:11:12.521Z,0
2017-01-15T00:11:57.318Z,0
2017-01-15T00:12:37.780Z,0
2017-01-15T00:13:20.208Z,0
2017-01-15T00:15:49.817Z,0
2017-01-15T00:16:41.620Z,0
2017-01-15T00:17:35.628Z,0
2017-01-15T00:18:16.608Z,0
2017-01-15T00:18:57.646Z,0
2017-01-15T00:19:40.019Z,0
2017-01-15T00:20:26.123Z,0
2017-01-15T00:21:08.192Z,0
2017-01-15T00:21:52.350Z,0
2017-01-15T00:22:35.316Z,0
2017-01-15T00:23:17.629Z,0
2017-01-15T00:23:59.138Z,0
2017-01-15T00:24:42.202Z,0
2017-01-15T00:25:25.209Z,0
2017-01-15T00:26:09.123Z,0
2017-01-15T00:26:54.126Z,0
2017-01-15T00:27:34.609Z,0
2017-01-15T00:28:17.836Z,0
2017-01-15T00:29:01.621Z,0
2017-01-15T00:29:45.696Z,0
2017-01-15T00:30:29.978Z,0
2017-01-15T00:31:11.099Z,0
2017-01-15T00:31:51.592Z,0
2017-01-15T00:32:32.071Z,0
2017-01-15T00:33:17.114Z,0
2017-01-15T00:35:31.918Z,0
2017-01-15T00:36:14.277Z,0
2017-01-15T00:37:03.288Z,0
2017-01-15T00:37:44.487Z,0
2017-01-15T00:38:26.596Z,0
2017-01-15T00:39:10.788Z,0
2017-01-15T00:39:53.150Z,0
2017-01-15T00:40:34.524Z,0
2017-01-15T00:41:17.293Z,0
2017-01-15T00:42:02.477Z,0
2017-01-15T00:42:42.983Z,0
2017-01-15T00:43:24.777Z,0
2017-01-15T00:44:06.783Z,0
2017-01-15T00:44:47.239Z,0
2017-01-15T00:45:30.272Z,0
2017-01-15T00:46:12.370Z,0
2017-01-15T00:46:53.698Z,0
2017-01-15T00:47:34.846Z,0
2017-01-15T00:48:18.758Z,0
2017-01-15T00:48:59.959Z,0
2017-01-15T00:49:44.768Z,0
2017-01-15T00:52:06.760Z,0
2017-01-15T00:52:47.867Z,0
2017-01-15T00:55:11.150Z,0
2017-01-15T00:55:51.985Z,0
2017-01-15T00:56:34.826Z,0
2017-01-15T00:57:20.733Z,0
2017-01-15T00:58:05.817Z,0
2017-01-15T00:58:49.616Z,0
2017-01-15T00:59:33.903Z,0
2017-01-15T01:00:15.817Z,0
2017-01-15T01:00:57.002Z,0
2017-01-15T01:01:39.704Z,0
2017-01-15T01:02:23.636Z,0
2017-01-15T01:03:04.821Z,0
2017-01-15T01:03:50.628Z,0
2017-01-15T01:04:31.817Z,0
2017-01-15T01:05:29.625Z,0
2017-01-15T01:06:12.728Z,0
2017-01-15T01:06:54.598Z,0
2017-01-15T01:07:35.688Z,0
2017-01-15T01:08:23.616Z,0
2017-01-15T01:12:14.645Z,0
2017-01-15T01:12:55.715Z,0
2017-01-15T01:13:41.548Z,0
2017-01-15T01:14:26.613Z,0
2017-01-15T01:15:07.103Z,0
2017-01-15T01:15:50.226Z,0
2017-01-15T01:16:33.509Z,0
2017-01-15T01:17:17.526Z,0
2017-01-15T01:17:58.551Z,0
2017-01-15T01:18:42.719Z,0
2017-01-15T01:19:26.518Z,0
2017-01-15T01:20:10.535Z,0
2017-01-15T01:21:10.521Z,0
2017-01-15T01:21:56.544Z,0
2017-01-15T01:22:37.655Z,0
2017-01-15T01:23:35.560Z,0
2017-01-15T01:24:19.561Z,0
2017-01-15T01:26:35.973Z,0
2017-01-15T01:27:17.797Z,0
2017-01-15T01:28:04.601Z,0
2017-01-15T01:28:49.699Z,0
2017-01-15T01:29:32.617Z,0
2017-01-15T01:30:15.835Z,0
2017-01-15T01:31:09.609Z,0
2017-01-15T01:31:56.647Z,0
2017-01-15T01:32:38.626Z,0
2017-01-15T01:33:21.613Z,0
2017-01-15T01:34:05.715Z,0
2017-01-15T01:34:57.618Z,0
2017-01-15T01:37:19.355Z,0
2017-01-15T01:37:59.681Z,0
2017-01-15T01:38:41.921Z,0
2017-01-15T01:39:22.382Z,0
2017-01-15T01:40:04.643Z,0
2017-01-15T01:40:47.669Z,0
2017-01-15T01:41:31.686Z,0
2017-01-15T01:42:12.752Z,0
2017-01-15T01:42:56.698Z,0
2017-01-15T01:43:38.691Z,0
2017-01-15T01:44:21.744Z,0
2017-01-15T01:46:38.566Z,0
2017-01-15T01:47:25.746Z,0
2017-01-15T01:49:47.008Z,0
2017-01-15T01:50:30.525Z,0
2017-01-15T01:51:12.694Z,0
2017-01-15T01:51:55.742Z,0
2017-01-15T01:52:39.636Z,0
2017-01-15T01:53:22.616Z,0
2017-01-15T01:54:08.627Z,0
2017-01-15T01:54:50.623Z,0
2017-01-15T01:55:33.520Z,0
2017-01-15T01:56:14.024Z,0
2017-01-15T01:57:07.019Z,0
2017-01-15T01:57:49.230Z,0
2017-01-15T02:00:42.027Z,0
2017-01-15T02:01:26.822Z,0
2017-01-15T02:02:10.838Z,0
2017-01-15T02:02:51.886Z,0
2017-01-15T02:03:35.927Z,0
2017-01-15T02:04:16.893Z,0
2017-01-15T02:05:04.827Z,0
2017-01-15T02:05:50.180Z,0
2017-01-15T02:06:33.596Z,0
2017-01-15T02:07:15.830Z,0
2017-01-15T02:07:58.050Z,0
2017-01-15T02:08:40.804Z,0
2017-01-15T02:09:22.966Z,0
2017-01-15T02:10:04.234Z,0
2017-01-15T02:10:46.833Z,0
2017-01-15T02:11:28.935Z,0
2017-01-15T02:12:09.911Z,0
2017-01-15T02:12:53.821Z,0
2017-01-15T02:13:34.384Z,0
2017-01-15T02:14:18.451Z,0
2017-01-15T02:15:04.327Z,0
2017-01-15T02:15:48.325Z,0
2017-01-15T02:16:31.317Z,0
2017-01-15T02:17:12.299Z,0
2017-01-15T02:17:56.308Z,0
2017-01-15T02:18:39.334Z,0
2017-01-15T02:19:23.330Z,0
2017-01-15T02:20:08.325Z,0
2017-01-15T02:20:51.392Z,0
2017-01-15T02:21:33.825Z,0
2017-01-15T02:22:15.035Z,0
2017-01-15T02:22:57.378Z,0
2017-01-15T02:23:40.630Z,0
2017-01-15T02:24:21.814Z,0
2017-01-15T02:25:05.044Z,0
2017-01-15T02:25:46.247Z,0
2017-01-15T02:26:28.340Z,0
2017-01-15T02:27:08.798Z,0
2017-01-15T02:27:50.032Z,0
2017-01-15T02:28:30.524Z,0
2017-01-15T02:29:12.410Z,0
2017-01-15T02:29:57.333Z,0
2017-01-15T02:30:37.874Z,0
2017-01-15T02:31:19.831Z,0
2017-01-15T02:32:01.811Z,0
2017-01-15T02:32:44.889Z,0
2017-01-15T02:33:27.806Z,0
2017-01-15T02:34:12.827Z,0
2017-01-15T02:34:56.820Z,0
2017-01-15T02:35:37.279Z,0
2017-01-15T02:36:20.401Z,0
2017-01-15T02:37:04.329Z,0
2017-01-15T02:37:44.782Z,0
2017-01-15T02:38:25.836Z,0
2017-01-15T02:39:08.951Z,0
2017-01-15T02:39:51.398Z,0
2017-01-15T02:40:32.420Z,0
2017-01-15T02:41:16.322Z,0
2017-01-15T02:41:59.447Z,0
2017-01-15T02:42:40.829Z,0
2017-01-15T02:43:28.821Z,0
2017-01-15T02:44:09.302Z,0
2017-01-15T02:44:55.356Z,0
2017-01-15T02:45:39.549Z,0
2017-01-15T02:46:25.310Z,0
2017-01-15T02:47:10.339Z,0
2017-01-15T02:47:51.442Z,0
2017-01-15T02:48:36.818Z,0
2017-01-15T02:49:22.816Z,0
2017-01-15T02:50:05.829Z,0
2017-01-15T02:50:48.896Z,0
2017-01-15T02:51:30.114Z,0
2017-01-15T02:52:12.409Z,0
2017-01-15T02:52:56.889Z,0
2017-01-15T02:53:38.580Z,0
2017-01-15T02:54:21.813Z,0
2017-01-15T02:55:10.029Z,0
2017-01-15T02:55:53.838Z,0
2017-01-15T02:56:42.902Z,0
2017-01-15T02:57:24.020Z,0
2017-01-15T02:58:07.821Z,0
2017-01-15T02:58:48.310Z,0
2017-01-15T02:59:32.331Z,0
2017-01-15T03:00:21.308Z,0
2017-01-15T03:01:08.326Z,0
2017-01-15T03:01:50.557Z,0
2017-01-15T03:02:44.915Z,0
2017-01-15T03:03:27.806Z,0
2017-01-15T03:04:17.125Z,0
2017-01-15T03:05:00.844Z,0
2017-01-15T03:05:46.819Z,0
2017-01-15T03:06:32.821Z,0
2017-01-15T03:07:29.847Z,0
2017-01-15T03:08:12.141Z,0
2017-01-15T03:08:53.529Z,0
2017-01-15T03:09:39.321Z,0
2017-01-15T03:10:23.542Z,0
2017-01-15T03:11:17.453Z,0
2017-01-15T03:12:00.617Z,0
2017-01-15T03:12:43.056Z,0
2017-01-15T03:13:24.809Z,0
2017-01-15T03:14:07.893Z,0
2017-01-15T03:14:55.847Z,0
2017-01-15T03:15:47.087Z,0
2017-01-15T03:16:32.438Z,0
2017-01-15T03:17:14.670Z,0
2017-01-15T03:18:05.315Z,0
2017-01-15T03:18:50.324Z,0
2017-01-15T03:19:34.671Z,0
2017-01-15T03:20:27.335Z,0
2017-01-15T03:21:10.398Z,0
2017-01-15T03:21:55.318Z,0
2017-01-15T03:22:39.311Z,0
2017-01-15T03:23:23.309Z,0
2017-01-15T03:25:46.022Z,0
2017-01-15T03:26:29.979Z,0
2017-01-15T03:27:20.014Z,0
2017-01-15T03:28:09.111Z,0
2017-01-15T03:28:52.329Z,0
2017-01-15T03:29:38.589Z,0
2017-01-15T03:30:22.744Z,0
2017-01-15T03:31:05.992Z,0
2017-01-15T03:31:47.092Z,0
2017-01-15T03:32:33.017Z,0
2017-01-15T03:33:19.080Z,0
2017-01-15T03:34:00.095Z,0
2017-01-15T03:34:42.297Z,0
2017-01-15T03:35:29.013Z,0
2017-01-15T03:37:29.236Z,0
2017-01-15T03:38:13.070Z,0
2017-01-15T03:39:11.071Z,0
2017-01-15T03:39:56.057Z,0
2017-01-15T03:40:43.077Z,0
2017-01-15T03:41:24.145Z,0
2017-01-15T03:42:05.380Z,0
2017-01-15T03:42:47.173Z,0
2017-01-15T03:43:28.286Z,0
2017-01-15T03:44:18.099Z,0
2017-01-15T03:45:04.055Z,0
2017-01-15T03:45:50.084Z,0
2017-01-15T03:46:31.290Z,0
2017-01-15T03:47:11.763Z,0
2017-01-15T03:47:52.874Z,0
2017-01-15T03:48:34.080Z,0
2017-01-15T03:49:14.631Z,0
2017-01-15T03:49:55.975Z,0
2017-01-15T03:50:41.774Z,0
2017-01-15T03:53:24.468Z,0
2017-01-15T03:54:05.280Z,0
2017-01-15T03:54:49.390Z,0
2017-01-15T03:55:30.598Z,0
2017-01-15T03:56:12.601Z,0
2017-01-15T03:56:56.406Z,0
2017-01-15T03:57:41.498Z,0
2017-01-15T03:58:24.498Z,0
2017-01-15T03:59:10.407Z,0
2017-01-15T03:59:53.506Z,0
2017-01-15T04:00:36.495Z,0
2017-01-15T04:01:20.668Z,0
2017-01-15T04:02:03.395Z,0
2017-01-15T04:02:47.483Z,0
2017-01-15T04:03:29.696Z,0
2017-01-15T04:04:11.892Z,0
2017-01-15T04:04:52.392Z,0
2017-01-15T04:05:38.395Z,0
2017-01-15T04:06:21.507Z,0
2017-01-15T04:07:11.408Z,0
2017-01-15T04:07:55.486Z,0
2017-01-15T04:08:41.397Z,0
2017-01-15T04:09:37.488Z,0
2017-01-15T04:10:18.666Z,0
2017-01-15T04:10:59.800Z,0
2017-01-15T04:15:13.495Z,0
2017-01-15T04:16:00.303Z,0
2017-01-15T04:16:41.684Z,0
2017-01-15T04:17:25.365Z,0
2017-01-15T04:18:13.298Z,0
2017-01-15T04:18:53.863Z,0
2017-01-15T04:19:34.319Z,0
2017-01-15T04:20:17.353Z,0
2017-01-15T04:20:58.628Z,0
2017-01-15T04:21:42.306Z,0
2017-01-15T04:22:23.773Z,0
2017-01-15T04:23:10.022Z,0
2017-01-15T04:23:51.935Z,0
2017-01-15T04:24:40.795Z,0
2017-01-15T04:25:22.027Z,0
2017-01-15T04:26:04.014Z,0
2017-01-15T04:26:45.850Z,0
2017-01-15T04:27:28.891Z,0
2017-01-15T04:28:10.987Z,0
2017-01-15T04:28:57.793Z,0
2017-01-15T04:29:40.187Z,0
2017-01-15T04:30:22.377Z,0
2017-01-15T04:31:05.361Z,0
2017-01-15T04:31:46.601Z,0
2017-01-15T04:32:28.031Z,0
2017-01-15T04:33:11.008Z,0
2017-01-15T04:33:54.169Z,0
2017-01-15T04:34:34.692Z,0
2017-01-15T04:35:19.844Z,0
2017-01-15T04:36:07.869Z,0
2017-01-15T04:36:53.869Z,0
2017-01-15T04:37:35.285Z,0
2017-01-15T04:38:15.755Z,0
2017-01-15T04:39:06.781Z,0
2017-01-15T04:39:48.075Z,0
2017-01-15T04:40:33.011Z,0
2017-01-15T04:41:14.787Z,0
2017-01-15T04:41:57.020Z,0
2017-01-15T04:42:41.803Z,0
2017-01-15T04:43:26.796Z,0
2017-01-15T04:44:14.892Z,0
2017-01-15T04:45:01.885Z,0
2017-01-15T04:45:45.794Z,0
2017-01-15T04:46:29.303Z,0
2017-01-15T04:47:13.352Z,0
2017-01-15T04:47:55.690Z,0
2017-01-15T04:48:36.991Z,0
2017-01-15T04:49:17.536Z,0
2017-01-15T04:49:59.287Z,0
2017-01-15T04:50:41.346Z,0
2017-01-15T04:51:24.783Z,0
2017-01-15T04:52:05.252Z,0
2017-01-15T04:52:50.309Z,0
2017-01-15T04:53:31.385Z,0
2017-01-15T04:54:13.470Z,0
2017-01-15T04:54:58.291Z,0
2017-01-15T04:55:38.748Z,0
2017-01-15T04:56:20.097Z,0
2017-01-15T04:57:02.356Z,0
2017-01-15T04:57:57.390Z,0
2017-01-15T04:58:37.854Z,0
2017-01-15T04:59:20.867Z,0
2017-01-15T05:00:03.029Z,0
2017-01-15T05:00:44.365Z,0
2017-01-15T05:01:41.276Z,0
2017-01-15T05:02:24.282Z,0
2017-01-15T05:03:08.274Z,0
2017-01-15T05:03:49.327Z,0
2017-01-15T05:04:33.267Z,0
2017-01-15T05:05:16.500Z,0
2017-01-15T05:06:09.300Z,0
2017-01-15T05:06:49.791Z,0
2017-01-15T05:07:32.765Z,0
2017-01-15T05:08:14.220Z,0
2017-01-15T05:08:54.670Z,0
2017-01-15T05:14:18.049Z,0
2017-01-15T05:14:59.649Z,0
2017-01-15T05:15:44.594Z,0
2017-01-15T05:16:29.561Z,0
2017-01-15T05:17:15.586Z,0
2017-01-15T06:11:17.802Z,0
2017-01-15T06:12:00.434Z,0
2017-01-15T06:12:42.466Z,0
2017-01-15T06:13:23.583Z,0
2017-01-15T06:14:06.435Z,0
2017-01-15T06:14:47.476Z,0
2017-01-15T06:15:29.529Z,0
2017-01-15T06:16:11.457Z,0
2017-01-15T06:16:57.442Z,0
2017-01-15T06:17:45.467Z,0
2017-01-15T06:18:25.907Z,0
2017-01-15T06:19:09.946Z,0
2017-01-15T06:19:54.947Z,0
2017-01-15T06:28:46.342Z,0
2017-01-15T06:29:30.438Z,0
2017-01-15T06:30:11.828Z,0
2017-01-15T06:30:52.306Z,0
2017-01-15T06:31:34.603Z,0
2017-01-15T06:32:15.101Z,0
2017-01-15T06:32:56.417Z,0
2017-01-15T06:33:40.126Z,0
2017-01-15T06:40:34.710Z,0
2017-01-15T06:41:17.606Z,0
2017-01-15T06:41:59.624Z,0
2017-01-15T06:42:55.719Z,0
2017-01-15T06:43:38.027Z,0
2017-01-15T06:44:19.216Z,0
2017-01-15T06:45:03.236Z,0
2017-01-15T06:47:32.744Z,0
2017-01-15T06:48:24.723Z,0
2017-01-15T06:49:05.818Z,0
2017-01-15T06:49:51.659Z,0
2017-01-15T06:50:33.166Z,0
2017-01-15T06:51:16.094Z,0
2017-01-15T06:52:06.125Z,0
2017-01-15T06:52:52.139Z,0
2017-01-15T06:53:49.245Z,0
2017-01-15T06:54:34.134Z,0
2017-01-15T06:55:15.317Z,0
2017-01-15T06:55:58.711Z,0
2017-01-15T06:56:40.828Z,0
2017-01-15T06:57:24.719Z,0
2017-01-15T06:58:06.127Z,4
2017-01-15T06:58:54.125Z,4
2017-01-15T06:59:45.128Z,4
2017-01-15T07:00:30.131Z,0
2017-01-15T07:01:11.535Z,0
2017-01-15T07:01:55.692Z,4
2017-01-15T07:03:00.603Z,4
2017-01-15T07:03:42.623Z,0
2017-01-15T07:04:27.619Z,4
2017-01-15T07:08:53.872Z,8
2017-01-15T07:09:34.327Z,8
2017-01-15T07:10:18.425Z,8
2017-01-15T07:10:58.911Z,12
2017-01-15T07:11:40.854Z,12
2017-01-15T07:12:21.930Z,12
2017-01-15T07:13:04.348Z,16
2017-01-15T07:13:45.743Z,16
2017-01-15T07:14:29.840Z,20
2017-01-15T07:15:15.830Z,20
2017-01-15T07:15:57.937Z,20
2017-01-15T07:16:40.927Z,24
2017-01-15T07:17:36.835Z,28
2017-01-15T07:18:19.974Z,32
2017-01-15T07:19:11.132Z,36
2017-01-15T07:19:57.866Z,40
2017-01-15T07:20:40.859Z,40
2017-01-15T07:21:23.858Z,44
2017-01-15T07:22:13.908Z,52
2017-01-15T07:22:54.923Z,56
2017-01-15T07:23:38.927Z,60
2017-01-15T07:24:20.834Z,64
2017-01-15T07:25:02.923Z,68
2017-01-15T07:25:46.839Z,76
2017-01-15T07:26:28.909Z,80
2017-01-15T07:27:11.928Z,88
2017-01-15T07:27:55.034Z,92
2017-01-15T07:28:39.921Z,100
2017-01-15T07:29:22.366Z,104
2017-01-15T07:30:03.733Z,112
2017-01-15T07:31:03.361Z,124
2017-01-15T07:31:55.437Z,136
2017-01-15T07:32:46.334Z,144
2017-01-15T07:33:27.434Z,156
2017-01-15T07:34:08.628Z,164
2017-01-15T07:35:00.359Z,172
2017-01-15T07:37:33.066Z,212
2017-01-15T07:38:15.347Z,224
2017-01-15T07:38:55.817Z,232
2017-01-15T07:39:36.847Z,244
2017-01-15T07:40:19.050Z,256
2017-01-15T07:42:36.797Z,296
2017-01-15T07:43:18.179Z,308
2017-01-15T07:44:00.453Z,320
2017-01-15T07:44:41.807Z,336
2017-01-15T07:45:25.020Z,352
2017-01-15T07:46:06.900Z,364
2017-01-15T07:47:06.807Z,380
2017-01-15T07:47:55.004Z,400
2017-01-15T07:48:37.142Z,412
2017-01-15T07:49:22.204Z,432
2017-01-15T07:50:03.481Z,444
2017-01-15T07:50:45.823Z,456
2017-01-15T07:51:27.061Z,472
2017-01-15T07:52:08.527Z,488
2017-01-15T07:52:50.297Z,500
2017-01-15T07:53:30.777Z,516
2017-01-15T07:54:15.755Z,532
2017-01-15T07:54:56.703Z,548
2017-01-15T07:55:41.716Z,560
2017-01-15T07:56:22.901Z,576
2017-01-15T07:57:06.026Z,596
2017-01-15T07:57:48.793Z,612
2017-01-15T07:58:31.114Z,628
2017-01-15T07:59:18.692Z,644
2017-01-15T08:00:11.725Z,660
2017-01-15T08:01:08.732Z,684
2017-01-15T08:01:49.798Z,704
2017-01-15T08:02:32.289Z,716
2017-01-15T08:03:16.560Z,732
2017-01-15T08:04:02.816Z,752
2017-01-15T08:04:56.739Z,768
2017-01-15T08:05:39.916Z,788
2017-01-15T08:06:21.202Z,804
2017-01-15T08:07:05.317Z,820
2017-01-15T08:07:51.305Z,840
2017-01-15T08:08:34.437Z,852
2017-01-15T08:09:30.211Z,876
2017-01-15T08:10:12.272Z,892
2017-01-15T08:10:55.198Z,912
2017-01-15T08:13:29.402Z,964
2017-01-15T08:14:11.613Z,988
2017-01-15T08:14:54.361Z,1000
2017-01-15T08:15:34.860Z,1016
2017-01-15T08:16:16.166Z,1032
2017-01-15T08:16:58.710Z,1044
2017-01-15T08:17:40.217Z,1060
2017-01-15T08:18:23.356Z,1076
2017-01-15T08:19:07.345Z,1096
2017-01-15T08:19:50.760Z,1112
2017-01-15T08:20:31.241Z,1132
2017-01-15T08:21:12.394Z,1168
2017-01-15T08:21:54.343Z,1200
2017-01-15T08:22:37.458Z,1228
2017-01-15T08:23:20.437Z,1252
2017-01-15T08:24:11.404Z,1272
2017-01-15T08:24:56.358Z,1288
2017-01-15T08:25:36.874Z,1304
2017-01-15T08:26:22.872Z,1320
2017-01-15T08:27:05.150Z,1332
2017-01-15T08:28:00.851Z,1348
2017-01-15T08:28:41.320Z,1364
2017-01-15T08:29:37.372Z,1380
2017-01-15T08:30:30.447Z,1396
2017-01-15T08:31:12.563Z,1412
2017-01-15T08:31:54.738Z,1424
2017-01-15T08:32:40.354Z,1440
2017-01-15T08:33:23.437Z,1452
2017-01-15T08:35:36.642Z,1500
2017-01-15T08:36:18.086Z,1512
2017-01-15T08:38:36.284Z,1556
2017-01-15T08:39:16.568Z,1564
2017-01-15T08:40:02.789Z,1580
2017-01-15T08:40:47.948Z,1592
2017-01-15T08:41:32.227Z,1604
2017-01-15T08:42:22.184Z,1616
2017-01-15T08:43:06.217Z,1628
2017-01-15T08:44:01.298Z,1648
2017-01-15T08:44:44.325Z,1660
2017-01-15T08:45:51.174Z,1672
2017-01-15T08:46:33.648Z,1684
2017-01-15T08:47:20.085Z,1700
2017-01-15T08:48:05.191Z,1708
2017-01-15T08:48:50.193Z,1720
2017-01-15T08:49:34.212Z,1732
2017-01-15T08:50:17.194Z,1744
2017-01-15T08:52:32.186Z,1780
2017-01-15T08:53:16.149Z,1788
2017-01-15T08:53:56.632Z,1800
2017-01-15T08:54:38.896Z,1808
2017-01-15T08:55:19.954Z,1820
2017-01-15T08:56:00.429Z,1832
2017-01-15T08:56:45.134Z,1840
2017-01-15T08:57:27.266Z,1852
2017-01-15T08:58:19.167Z,1864
2017-01-15T08:59:00.476Z,1872
2017-01-15T09:01:02.065Z,1900
2017-01-15T09:01:47.047Z,1908
2017-01-15T09:02:29.371Z,1920
2017-01-15T09:03:12.040Z,1928
2017-01-15T09:03:56.015Z,1936
2017-01-15T09:04:43.127Z,1948
2017-01-15T09:05:24.584Z,1956
2017-01-15T09:06:08.617Z,1964
2017-01-15T09:06:52.537Z,1972
2017-01-15T09:07:46.516Z,1980
2017-01-15T09:08:27.023Z,1988
2017-01-15T09:09:08.016Z,1996
2017-01-15T09:09:52.226Z,2008
2017-01-15T09:10:33.629Z,2012
2017-01-15T09:11:14.819Z,2020
2017-01-15T09:11:56.083Z,2032
2017-01-15T09:12:36.574Z,2036
2017-01-15T09:13:17.769Z,2044
2017-01-15T09:14:00.257Z,2056
2017-01-15T09:14:43.360Z,2064
2017-01-15T09:15:25.242Z,2072
2017-01-15T09:16:05.753Z,2076
2017-01-15T09:16:48.921Z,2084
2017-01-15T09:17:33.146Z,2088
2017-01-15T09:18:16.032Z,2096
2017-01-15T09:20:48.341Z,2120
2017-01-15T09:21:29.610Z,2124
2017-01-15T09:22:10.599Z,2132
2017-01-15T09:22:51.088Z,2132
2017-01-15T09:23:34.891Z,2144
2017-01-15T09:24:17.120Z,2148
2017-01-15T09:24:58.195Z,2152
2017-01-15T09:25:39.179Z,2160
2017-01-15T09:26:22.120Z,2164
2017-01-15T09:27:04.529Z,2172
2017-01-15T09:29:20.224Z,2192
2017-01-15T09:31:34.126Z,2208
2017-01-15T09:32:14.943Z,2216
2017-01-15T09:42:41.311Z,2292
2017-01-15T09:43:23.219Z,2300
2017-01-15T09:44:04.334Z,2304
2017-01-15T09:44:54.429Z,2308
2017-01-15T09:45:37.223Z,2308
2017-01-15T09:46:17.689Z,2316
2017-01-15T09:47:01.744Z,2316
2017-01-15T09:47:42.205Z,2320
2017-01-15T09:48:23.430Z,2324
2017-01-15T09:53:50.546Z,2356
2017-01-15T09:54:31.895Z,2360
2017-01-15T09:56:58.310Z,2368
2017-01-15T09:57:46.073Z,2372
2017-01-15T09:58:33.392Z,2376
2017-01-15T09:59:16.158Z,2376
2017-01-15T10:00:05.081Z,2380
2017-01-15T10:00:53.085Z,2384
2017-01-15T10:01:38.088Z,2392
2017-01-15T10:02:21.269Z,2392
2017-01-15T10:03:05.119Z,2392
2017-01-15T10:03:48.194Z,2396
2017-01-15T10:04:38.076Z,2400
2017-01-15T10:05:22.187Z,2400
2017-01-15T10:17:14.134Z,2436
2017-01-15T10:18:01.798Z,2436
2017-01-15T10:18:49.808Z,2440
2017-01-15T10:19:31.902Z,2436
2017-01-15T10:20:21.801Z,2440
2017-01-15T10:21:05.808Z,2440
2017-01-15T10:26:42.292Z,2448
2017-01-15T10:27:25.229Z,2448
2017-01-15T10:29:43.667Z,2448
2017-01-15T10:30:36.512Z,2448
2017-01-15T10:31:30.413Z,2444
2017-01-15T10:32:14.482Z,2448
2017-01-15T10:33:00.715Z,2448
2017-01-15T10:33:47.493Z,2448
2017-01-15T10:34:32.622Z,2448
2017-01-15T10:35:29.516Z,2448
2017-01-15T10:36:17.934Z,2444
2017-01-15T10:37:03.927Z,2444
2017-01-15T10:37:50.919Z,2440
2017-01-15T10:38:39.931Z,2440
2017-01-15T10:39:29.914Z,2436
2017-01-15T10:40:28.217Z,2440
2017-01-15T10:41:13.137Z,2436
2017-01-15T10:41:59.121Z,2436
2017-01-15T10:44:45.063Z,2436
2017-01-15T10:45:30.542Z,2436
2017-01-15T10:46:16.539Z,2440
2017-01-15T10:48:36.354Z,2456
2017-01-15T10:49:20.105Z,2476
2017-01-15T10:50:12.150Z,2520
2017-01-15T10:50:59.200Z,2560
2017-01-15T10:51:46.611Z,2584
2017-01-15T10:52:27.905Z,2620
2017-01-15T10:53:12.119Z,2640
2017-01-15T10:53:56.145Z,2664
2017-01-15T10:54:40.134Z,2684
2017-01-15T10:57:02.015Z,2748
2017-01-15T11:04:17.900Z,2880
2017-01-15T11:05:03.697Z,2892
2017-01-15T11:05:45.813Z,2904
2017-01-15T11:06:41.779Z,2916
2017-01-15T11:08:41.457Z,2952
2017-01-15T11:09:21.982Z,2960
2017-01-15T11:10:03.863Z,2972
2017-01-15T11:10:46.951Z,2984
2017-01-15T11:11:28.872Z,2996
2017-01-15T11:13:29.443Z,3024
2017-01-15T11:14:15.939Z,3040
2017-01-15T11:14:57.047Z,3048
2017-01-15T11:15:37.471Z,3072
2017-01-15T11:16:17.975Z,3080
2017-01-15T11:17:07.978Z,3092
2017-01-15T11:17:52.174Z,3108
2017-01-15T11:18:38.056Z,3124
2017-01-15T11:19:23.957Z,3132
2017-01-15T11:23:14.456Z,3184
2017-01-15T11:23:56.233Z,3196
2017-01-15T11:24:38.144Z,3208
2017-01-15T11:25:19.352Z,3216
2017-01-15T11:26:04.148Z,3232
2017-01-15T11:26:46.236Z,3240
2017-01-15T11:27:32.434Z,3248
2017-01-15T11:28:16.406Z,3256
2017-01-15T11:28:58.639Z,3264
2017-01-15T11:29:43.624Z,3272
2017-01-15T11:30:24.089Z,3284
2017-01-15T11:32:29.692Z,3316
2017-01-15T11:33:15.664Z,3320
2017-01-15T11:33:57.095Z,3332
2017-01-15T11:34:38.971Z,3340
2017-01-15T11:35:22.089Z,3360
2017-01-15T11:36:10.700Z,3372
2017-01-15T11:36:51.961Z,3376
2017-01-15T11:37:37.685Z,3380
2017-01-15T11:38:22.677Z,3392
2017-01-15T11:39:06.781Z,3400
2017-01-15T11:39:53.884Z,3412
2017-01-15T11:40:35.177Z,3416
2017-01-15T11:41:15.651Z,3424
2017-01-15T11:41:58.692Z,3432
2017-01-15T11:42:40.781Z,3432
2017-01-15T11:43:23.767Z,3432
2017-01-15T11:44:08.680Z,3436
2017-01-15T11:44:49.170Z,3448
2017-01-15T11:45:32.174Z,3448
2017-01-15T11:46:26.202Z,3456
2017-01-15T11:47:10.571Z,3456
2017-01-15T11:47:52.398Z,3464
2017-01-15T11:48:36.400Z,3468
2017-01-15T11:49:24.166Z,3476
2017-01-15T11:50:04.690Z,3476
2017-01-15T11:50:53.660Z,3480
2017-01-15T11:51:34.177Z,3488
2017-01-15T11:52:19.167Z,3496
2017-01-15T11:54:21.821Z,3500
2017-01-15T11:55:03.747Z,3504
2017-01-15T11:55:45.743Z,3512
2017-01-15T11:56:28.805Z,3512
2017-01-15T11:57:13.862Z,3516
2017-01-15T11:57:59.070Z,3516
2017-01-15T11:58:40.331Z,3524
2017-01-15T11:59:23.483Z,3528
2017-01-15T12:00:05.470Z,3528
2017-01-15T12:00:52.251Z,3528
2017-01-15T12:01:34.454Z,3524
2017-01-15T12:02:14.923Z,3536
2017-01-15T12:02:56.061Z,3544
2017-01-15T12:03:38.154Z,3552
2017-01-15T12:04:20.992Z,3548
2017-01-15T12:05:01.473Z,3548
2017-01-15T12:05:42.737Z,3544
2017-01-15T12:06:24.956Z,3544
2017-01-15T12:07:05.955Z,3552
2017-01-15T12:07:46.463Z,3560
2017-01-15T12:08:29.312Z,3560
2017-01-15T12:09:14.255Z,3556
2017-01-15T12:09:54.759Z,3556
2017-01-15T12:10:37.068Z,3560
2017-01-15T12:11:17.560Z,3568
2017-01-15T12:12:02.253Z,3568
2017-01-15T12:12:45.631Z,3568
2017-01-15T12:13:29.329Z,3568
2017-01-15T12:14:12.649Z,3572
2017-01-15T12:14:58.735Z,3572
2017-01-15T12:15:41.812Z,3580
2017-01-15T12:16:27.727Z,3580
2017-01-15T12:17:13.150Z,3592
2017-01-15T12:18:06.732Z,3600
2017-01-15T12:18:48.727Z,3592
2017-01-15T12:19:32.829Z,3596
2017-01-15T12:20:17.890Z,3592
2017-01-15T12:21:08.734Z,3596
2017-01-15T12:21:51.743Z,3592
2017-01-15T12:22:37.738Z,3596
2017-01-15T12:23:22.828Z,3596
2017-01-15T12:24:05.817Z,3592
2017-01-15T12:24:49.062Z,3592
2017-01-15T12:27:18.999Z,3584
2017-01-15T12:28:01.033Z,3580
2017-01-15T12:28:45.820Z,3576
2017-01-15T12:29:44.902Z,3572
2017-01-15T12:30:28.047Z,3572
2017-01-15T12:31:10.043Z,3576
2017-01-15T12:32:13.074Z,3568
2017-01-15T12:32:58.321Z,3568
2017-01-15T12:33:41.662Z,3560
2017-01-15T12:34:22.888Z,3556
2017-01-15T12:35:06.823Z,3556
2017-01-15T12:35:56.844Z,3556
2017-01-15T12:36:39.035Z,3556
2017-01-15T12:37:22.909Z,3552
2017-01-15T12:38:26.838Z,3552
2017-01-15T12:39:08.838Z,3552
2017-01-15T12:39:56.017Z,3548
2017-01-15T12:40:38.140Z,3556
2017-01-15T12:41:22.068Z,3540
2017-01-15T12:42:09.842Z,3540
2017-01-15T12:42:53.253Z,3540
2017-01-15T12:43:39.338Z,3532
2017-01-15T12:44:22.559Z,3532
2017-01-15T12:45:07.338Z,3528
2017-01-15T12:45:49.324Z,3524
2017-01-15T12:46:30.571Z,3516
2017-01-15T12:47:15.316Z,3516
2017-01-15T12:47:57.403Z,3516
2017-01-15T12:48:38.692Z,3516
2017-01-15T12:49:19.147Z,3512
2017-01-15T12:50:09.822Z,3504
2017-01-15T12:51:10.816Z,3496
2017-01-15T12:51:55.828Z,3492
2017-01-15T12:52:38.056Z,3480
2017-01-15T12:53:20.056Z,3480
2017-01-15T12:54:01.243Z,3480
2017-01-15T12:56:32.269Z,3452
2017-01-15T12:57:15.020Z,3452
2017-01-15T12:57:58.353Z,3444
2017-01-15T12:58:44.357Z,3436
2017-01-15T12:59:30.137Z,3424
2017-01-15T13:00:14.032Z,3420
2017-01-15T13:01:05.046Z,3412
2017-01-15T13:01:46.421Z,3404
2017-01-15T13:02:29.822Z,3400
2017-01-15T13:03:14.533Z,3388
2017-01-15T13:05:29.679Z,3356
2017-01-15T13:06:15.619Z,3348
2017-01-15T13:06:56.846Z,3340
2017-01-15T13:07:41.655Z,3328
2017-01-15T13:08:33.640Z,3320
2017-01-15T13:10:56.242Z,3284
2017-01-15T13:11:39.188Z,3280
2017-01-15T13:12:21.200Z,3268
2017-01-15T13:13:03.517Z,3260
2017-01-15T13:15:41.443Z,3220
2017-01-15T13:16:22.965Z,3212
2017-01-15T13:17:10.963Z,3204
2017-01-15T13:17:56.941Z,3192
2017-01-15T13:18:42.141Z,3180
2017-01-15T13:19:22.861Z,3172
2017-01-15T13:21:41.194Z,3148
2017-01-15T13:22:21.559Z,3136
2017-01-15T13:23:02.815Z,3124
2017-01-15T13:23:44.131Z,3120
2017-01-15T13:24:24.583Z,3108
2017-01-15T13:25:06.615Z,3100
2017-01-15T13:25:49.543Z,3092
2017-01-15T13:26:30.035Z,3084
2017-01-15T13:27:14.034Z,3076
2017-01-15T13:27:58.033Z,3068
2017-01-15T13:28:48.020Z,3056